Time;durP1;ratioP1;P1;durP2;ratioP2;P2;SDS_P1;SDS_P2;PMS_P1;PMS_P2;Temp;Humidity;BMP_temperature;BMP_pressure;BME280_temperature;BME280_humidity;BME280_pressure;Samples;Min_cycle;Max_cycle;Signal;HPM_P1;HPM_P2
2023/01/26 00:00:49;;;;;;;25.60;3.08;;;;;;;;;;5017881;28;20033;-73
2023/01/26 00:03:14;;;;;;;27.35;3.47;;;;;;;;;;5013286;28;20105;-73
2023/01/26 00:05:40;;;;;;;16.75;2.78;;;;;;;;;;5019581;28;20471;-73
2023/01/26 00:08:06;;;;;;;25.83;2.55;;;;;;;;;;5027905;28;20042;-73
2023/01/26 00:10:31;;;;;;;18.95;2.92;;;;;;;;;;5018496;28;20030;-73
2023/01/26 00:12:56;;;;;;;30.48;3.80;;;;;;;;;;5014421;28;20121;-73
2023/01/26 00:15:22;;;;;;;16.95;2.85;;;;;;;;;;5025998;28;20501;-73
2023/01/26 00:17:50;;;;;;;25.02;3.88;;;;;;;;;;5015704;28;20034;-74
2023/01/26 00:20:16;;;;;;;21.77;2.20;;;;;;;;;;5026469;28;20065;-75
2023/01/26 00:22:41;;;;;;;16.98;3.28;;;;;;;;;;5023676;28;20076;-73
2023/01/26 00:25:07;;;;;;;39.50;3.35;;;;;;;;;;5022987;28;20029;-73
2023/01/26 00:27:32;;;;;;;29.55;2.47;;;;;;;;;;5027863;28;20049;-74
2023/01/26 00:29:58;;;;;;;28.85;2.92;;;;;;;;;;5018312;28;20030;-73
2023/01/26 00:32:23;;;;;;;23.10;3.40;;;;;;;;;;5013235;28;20041;-73
2023/01/26 00:34:48;;;;;;;37.83;4.43;;;;;;;;;;5005452;28;20493;-74
2023/01/26 00:37:14;;;;;;;38.38;5.10;;;;;;;;;;5027494;28;20065;-73
2023/01/26 00:39:39;;;;;;;23.55;4.05;;;;;;;;;;5008896;28;20034;-73
2023/01/26 00:42:12;;;;;;;31.83;3.38;;;;;;;;;;5015964;28;20141;-73
2023/01/26 00:44:39;;;;;;;31.17;2.90;;;;;;;;;;5011396;28;20040;-73
2023/01/26 00:47:06;;;;;;;21.10;2.17;;;;;;;;;;5011134;28;20706;-73
2023/01/26 00:49:31;;;;;;;20.75;2.40;;;;;;;;;;5011799;28;20040;-74
2023/01/26 00:51:57;;;;;;;37.67;3.70;;;;;;;;;;5015419;28;20038;-73
2023/01/26 00:54:22;;;;;;;21.25;2.30;;;;;;;;;;5004126;28;20462;-73
2023/01/26 00:56:47;;;;;;;18.92;2.40;;;;;;;;;;5022539;28;20562;-74
2023/01/26 00:59:13;;;;;;;24.20;2.38;;;;;;;;;;5017698;28;20026;-73
2023/01/26 01:01:38;;;;;;;12.75;1.48;;;;;;;;;;5015296;28;20056;-73
2023/01/26 01:04:04;;;;;;;23.33;2.20;;;;;;;;;;5019726;28;20484;-73
2023/01/26 01:06:29;;;;;;;19.30;2.60;;;;;;;;;;5021572;28;20466;-73
2023/01/26 01:08:54;;;;;;;8.93;2.35;;;;;;;;;;5021195;28;20037;-73
2023/01/26 01:11:20;;;;;;;19.00;1.98;;;;;;;;;;5016672;28;20448;-73
2023/01/26 01:13:45;;;;;;;21.00;2.20;;;;;;;;;;5019180;28;20034;-74
2023/01/26 01:16:13;;;;;;;22.33;2.63;;;;;;;;;;5016443;28;20507;-73
2023/01/26 01:18:39;;;;;;;31.83;2.85;;;;;;;;;;5010168;28;20070;-73
2023/01/26 01:21:09;;;;;;;11.35;2.03;;;;;;;;;;5018900;28;20119;-73
2023/01/26 01:23:34;;;;;;;8.15;2.08;;;;;;;;;;5022907;28;20038;-73
2023/01/26 01:26:00;;;;;;;22.98;2.10;;;;;;;;;;5019578;28;20052;-73
2023/01/26 01:28:26;;;;;;;16.75;1.58;;;;;;;;;;5021371;28;20030;-73
2023/01/26 01:30:51;;;;;;;13.50;1.60;;;;;;;;;;5015216;28;20037;-73
2023/01/26 01:33:17;;;;;;;14.15;1.92;;;;;;;;;;5009067;28;20500;-73
2023/01/26 01:35:42;;;;;;;18.65;2.58;;;;;;;;;;5017448;28;20033;-73
2023/01/26 01:38:07;;;;;;;30.27;2.53;;;;;;;;;;5021999;28;20474;-73
2023/01/26 01:40:33;;;;;;;24.13;3.33;;;;;;;;;;5025069;28;20156;-73
2023/01/26 01:42:58;;;;;;;22.83;2.17;;;;;;;;;;5005198;28;20037;-73
2023/01/26 01:45:47;;;;;;;24.02;2.03;;;;;;;;;;5022333;28;20109;-73
2023/01/26 01:48:42;;;;;;;12.40;2.10;;;;;;;;;;5010612;28;20049;-72
2023/01/26 01:51:32;;;;;;;10.63;1.98;;;;;;;;;;5011628;28;20068;-73
2023/01/26 01:54:01;;;;;;;37.58;2.47;;;;;;;;;;5022284;28;20046;-73
2023/01/26 01:56:27;;;;;;;18.58;2.20;;;;;;;;;;5018740;28;20037;-73
2023/01/26 01:58:54;;;;;;;27.05;2.72;;;;;;;;;;5004519;28;20129;-74
2023/01/26 02:01:20;;;;;;;25.88;2.30;;;;;;;;;;5003513;28;20026;-74
2023/01/26 02:03:48;;;;;;;8.88;1.38;;;;;;;;;;5019952;28;20044;-72
2023/01/26 02:06:18;;;;;;;30.90;2.83;;;;;;;;;;5019445;28;20042;-72
2023/01/26 02:08:44;;;;;;;29.50;2.60;;;;;;;;;;5036579;28;20034;-72
2023/01/26 02:11:13;;;;;;;12.00;1.67;;;;;;;;;;5015506;28;20061;-72
2023/01/26 02:13:41;;;;;;;26.23;2.15;;;;;;;;;;5016677;28;20037;-72
2023/01/26 02:16:07;;;;;;;22.67;1.42;;;;;;;;;;5014354;28;20038;-72
2023/01/26 02:18:32;;;;;;;15.40;1.88;;;;;;;;;;5012558;28;20426;-73
2023/01/26 02:21:00;;;;;;;17.38;1.80;;;;;;;;;;5022811;28;20081;-73
2023/01/26 02:23:35;;;;;;;15.07;3.30;;;;;;;;;;5015708;28;20030;-72
2023/01/26 02:26:10;;;;;;;18.40;2.10;;;;;;;;;;5018346;28;20402;-73
2023/01/26 02:28:35;;;;;;;15.82;1.60;;;;;;;;;;5015763;28;20045;-73
2023/01/26 02:31:02;;;;;;;7.32;0.98;;;;;;;;;;5017250;28;20042;-73
2023/01/26 02:33:30;;;;;;;6.38;1.52;;;;;;;;;;5014257;28;20042;-73
2023/01/26 02:35:55;;;;;;;26.45;2.72;;;;;;;;;;5027197;28;20080;-72
2023/01/26 02:38:22;;;;;;;34.50;2.47;;;;;;;;;;5021408;28;20037;-73
2023/01/26 02:40:57;;;;;;;17.17;1.85;;;;;;;;;;5015200;28;20041;-73
2023/01/26 02:43:24;;;;;;;11.27;2.30;;;;;;;;;;5014326;28;20044;-73
2023/01/26 02:45:49;;;;;;;36.65;2.67;;;;;;;;;;5017466;28;20037;-73
2023/01/26 02:49:45;;;;;;;15.35;1.65;;;;;;;;;;5014256;28;20026;-73
2023/01/26 02:51:00;;;;;;;24.08;3.33;;;;;;;;;;5017595;28;20097;-73
2023/01/26 02:53:25;;;;;;;17.25;2.25;;;;;;;;;;5013717;28;20065;-73
2023/01/26 02:55:51;;;;;;;23.27;2.75;;;;;;;;;;5020012;28;20038;-72
2023/01/26 02:58:16;;;;;;;9.73;1.58;;;;;;;;;;5012896;28;20037;-72
2023/01/26 03:00:42;;;;;;;20.25;1.55;;;;;;;;;;5013520;28;20045;-73
2023/01/26 03:03:43;;;;;;;17.63;1.92;;;;;;;;;;5016586;28;20030;-73
2023/01/26 03:06:10;;;;;;;19.13;1.88;;;;;;;;;;5028425;28;20481;-73
2023/01/26 03:08:36;;;;;;;28.80;2.63;;;;;;;;;;5020522;28;20045;-73
2023/01/26 03:11:03;;;;;;;13.60;1.50;;;;;;;;;;5026682;28;20434;-72
2023/01/26 03:13:28;;;;;;;17.15;2.03;;;;;;;;;;5019433;28;20034;-72
2023/01/26 03:15:54;;;;;;;13.27;1.70;;;;;;;;;;5022801;28;20042;-72
2023/01/26 03:29:22;;;;;;;34.00;3.03;;;;;;;;;;5009011;28;20052;-73
2023/01/26 03:31:48;;;;;;;29.38;2.53;;;;;;;;;;5020799;28;20093;-72
2023/01/26 03:34:14;;;;;;;10.52;1.80;;;;;;;;;;5014249;28;20038;-73
2023/01/26 03:36:39;;;;;;;10.85;2.05;;;;;;;;;;5025338;28;20396;-75
2023/01/26 03:39:05;;;;;;;27.10;2.25;;;;;;;;;;5015201;28;20045;-73
2023/01/26 03:57:53;;;;;;;15.43;2.25;;;;;;;;;;5012514;28;20060;-72
2023/01/26 04:00:20;;;;;;;5.82;2.58;;;;;;;;;;5011777;28;20037;-72
2023/01/26 04:08:19;;;;;;;12.30;2.05;;;;;;;;;;5010065;28;20053;-73
2023/01/26 04:10:44;;;;;;;13.38;2.08;;;;;;;;;;5017525;28;20033;-74
2023/01/26 04:21:33;;;;;;;18.48;2.50;;;;;;;;;;5015177;28;20036;-73
2023/01/26 04:23:59;;;;;;;30.70;2.55;;;;;;;;;;5006714;28;20041;-72
2023/01/26 04:26:33;;;;;;;24.05;3.13;;;;;;;;;;5012428;28;20146;-73
2023/01/26 04:29:01;;;;;;;11.27;2.38;;;;;;;;;;5011434;28;20564;-73
2023/01/26 04:31:26;;;;;;;34.70;2.75;;;;;;;;;;5016599;28;20054;-72
2023/01/26 04:33:52;;;;;;;11.20;1.65;;;;;;;;;;5007648;28;20140;-72
2023/01/26 04:36:17;;;;;;;20.00;2.15;;;;;;;;;;5009430;28;20034;-72
2023/01/26 04:38:42;;;;;;;17.80;2.15;;;;;;;;;;5001224;28;20033;-73
2023/01/26 04:41:08;;;;;;;20.85;2.80;;;;;;;;;;5013087;28;20037;-72
2023/01/26 04:43:33;;;;;;;23.75;1.92;;;;;;;;;;5019339;28;20042;-71
2023/01/26 04:46:01;;;;;;;17.30;2.67;;;;;;;;;;5021598;28;20037;-72
2023/01/26 04:48:27;;;;;;;9.30;1.70;;;;;;;;;;5026175;28;20097;-72
2023/01/26 04:51:01;;;;;;;11.05;2.03;;;;;;;;;;5018977;28;20041;-71
2023/01/26 04:53:27;;;;;;;9.73;2.40;;;;;;;;;;5004405;28;20120;-71
2023/01/26 04:55:52;;;;;;;7.65;1.85;;;;;;;;;;5017921;28;20117;-72
2023/01/26 04:58:18;;;;;;;10.75;2.25;;;;;;;;;;5021273;28;20491;-72
2023/01/26 05:00:43;;;;;;;11.52;2.10;;;;;;;;;;5012207;28;20038;-72
2023/01/26 05:03:09;;;;;;;23.85;2.83;;;;;;;;;;5028432;28;20490;-72
2023/01/26 05:05:38;;;;;;;17.55;2.40;;;;;;;;;;5018103;28;20068;-72
2023/01/26 05:08:04;;;;;;;4.63;1.52;;;;;;;;;;5012037;28;20084;-73
2023/01/26 05:10:30;;;;;;;17.25;2.00;;;;;;;;;;5029037;28;20041;-75
2023/01/26 05:12:56;;;;;;;22.00;2.65;;;;;;;;;;5013351;28;20029;-72
2023/01/26 05:15:21;;;;;;;11.32;2.25;;;;;;;;;;5013773;28;20088;-71
2023/01/26 05:17:46;;;;;;;12.07;2.40;;;;;;;;;;5011641;28;20108;-72
2023/01/26 05:20:12;;;;;;;19.10;3.63;;;;;;;;;;5002716;28;20045;-72
2023/01/26 05:22:38;;;;;;;17.67;1.98;;;;;;;;;;5025891;28;20128;-72
2023/01/26 05:25:04;;;;;;;16.10;2.67;;;;;;;;;;5013528;28;20049;-73
2023/01/26 05:27:29;;;;;;;9.82;3.13;;;;;;;;;;5035764;28;20036;-71
2023/01/26 05:29:59;;;;;;;19.15;2.58;;;;;;;;;;5025783;28;20033;-74
2023/01/26 05:32:28;;;;;;;5.35;1.73;;;;;;;;;;5020046;28;20040;-73
2023/01/26 05:34:53;;;;;;;10.38;1.70;;;;;;;;;;5012447;28;20072;-72
2023/01/26 05:37:19;;;;;;;9.77;2.28;;;;;;;;;;5008195;28;20497;-72
2023/01/26 05:39:44;;;;;;;11.25;3.13;;;;;;;;;;5023381;28;20033;-73
2023/01/26 05:42:11;;;;;;;15.38;2.05;;;;;;;;;;5020716;28;20488;-72
2023/01/26 05:44:36;;;;;;;13.43;2.17;;;;;;;;;;5016430;28;20390;-73
2023/01/26 05:47:02;;;;;;;7.90;1.95;;;;;;;;;;5005692;28;20050;-72
2023/01/26 05:49:27;;;;;;;4.95;1.85;;;;;;;;;;5008277;28;20038;-71
2023/01/26 05:51:52;;;;;;;7.28;2.00;;;;;;;;;;5013996;28;20057;-72
2023/01/26 05:54:18;;;;;;;3.60;1.63;;;;;;;;;;5015416;28;20069;-72
2023/01/26 05:56:43;;;;;;;14.40;3.38;;;;;;;;;;5014402;28;20058;-72
2023/01/26 05:59:09;;;;;;;7.55;1.92;;;;;;;;;;5020994;28;20041;-72
2023/01/26 06:01:34;;;;;;;20.58;2.70;;;;;;;;;;5013216;28;20394;-72
2023/01/26 06:04:00;;;;;;;16.77;2.92;;;;;;;;;;5023781;28;20025;-72
2023/01/26 06:06:25;;;;;;;11.18;3.00;;;;;;;;;;5023642;28;20030;-72
2023/01/26 06:08:50;;;;;;;19.73;2.47;;;;;;;;;;5025671;28;20462;-72
2023/01/26 06:11:16;;;;;;;8.95;3.40;;;;;;;;;;5019858;28;20466;-71
2023/01/26 06:13:41;;;;;;;10.07;2.38;;;;;;;;;;5010264;28;20038;-72
2023/01/26 06:16:07;;;;;;;10.45;2.28;;;;;;;;;;5019630;28;20049;-72
2023/01/26 06:18:32;;;;;;;13.35;3.65;;;;;;;;;;5013943;28;20099;-71
2023/01/26 06:20:59;;;;;;;20.55;3.05;;;;;;;;;;5018444;28;20526;-71
2023/01/26 06:23:25;;;;;;;8.32;2.72;;;;;;;;;;5014157;28;20038;-71
2023/01/26 06:25:51;;;;;;;11.65;2.72;;;;;;;;;;5018158;28;20109;-71
2023/01/26 06:28:18;;;;;;;15.73;2.65;;;;;;;;;;5020451;28;20475;-71
2023/01/26 06:30:43;;;;;;;8.35;2.50;;;;;;;;;;5023024;28;20041;-72
2023/01/26 06:33:09;;;;;;;18.67;3.47;;;;;;;;;;5015746;28;20029;-72
2023/01/26 06:35:37;;;;;;;11.35;2.90;;;;;;;;;;5020796;28;20038;-72
2023/01/26 06:38:02;;;;;;;21.42;4.43;;;;;;;;;;5014756;28;20437;-73
2023/01/26 06:40:28;;;;;;;24.45;3.70;;;;;;;;;;5019441;28;20033;-72
2023/01/26 06:42:53;;;;;;;18.73;3.85;;;;;;;;;;5012702;28;20038;-72
2023/01/26 06:45:19;;;;;;;8.60;3.75;;;;;;;;;;5032470;28;20045;-72
2023/01/26 06:47:49;;;;;;;20.10;5.10;;;;;;;;;;5011084;28;20025;-73
2023/01/26 06:50:18;;;;;;;9.95;2.70;;;;;;;;;;5018550;28;20053;-72
2023/01/26 06:52:46;;;;;;;27.80;3.35;;;;;;;;;;5022727;28;20046;-72
2023/01/26 06:55:34;;;;;;;20.38;3.20;;;;;;;;;;5018095;28;20429;-72
2023/01/26 06:57:59;;;;;;;18.50;3.83;;;;;;;;;;5016292;28;20138;-73
2023/01/26 07:00:25;;;;;;;15.52;4.10;;;;;;;;;;5014837;28;20041;-71
2023/01/26 07:02:50;;;;;;;10.73;3.58;;;;;;;;;;5022877;28;20424;-71
2023/01/26 07:05:16;;;;;;;16.90;4.25;;;;;;;;;;5017076;28;20478;-71
2023/01/26 07:07:41;;;;;;;13.32;4.07;;;;;;;;;;5012502;28;20033;-72
2023/01/26 07:10:07;;;;;;;20.90;5.05;;;;;;;;;;5019973;28;20013;-71
2023/01/26 07:12:44;;;;;;;17.50;5.43;;;;;;;;;;5030017;28;20119;-71
2023/01/26 07:15:11;;;;;;;30.73;5.93;;;;;;;;;;5029782;28;20105;-72
2023/01/26 07:17:38;;;;;;;20.08;6.38;;;;;;;;;;4991603;28;20050;-73
2023/01/26 07:20:04;;;;;;;22.42;5.72;;;;;;;;;;5029081;28;20037;-72
2023/01/26 07:22:29;;;;;;;25.67;6.00;;;;;;;;;;5018599;28;20037;-71
2023/01/26 07:24:55;;;;;;;23.40;6.85;;;;;;;;;;5023659;28;20481;-71
2023/01/26 07:27:20;;;;;;;25.85;5.68;;;;;;;;;;5011246;28;20124;-71
2023/01/26 07:29:45;;;;;;;22.33;6.38;;;;;;;;;;5016906;28;20485;-71
2023/01/26 07:32:11;;;;;;;22.63;4.93;;;;;;;;;;5018127;28;20112;-71
2023/01/26 07:34:36;;;;;;;26.33;7.03;;;;;;;;;;5012004;28;20038;-72
2023/01/26 07:37:02;;;;;;;15.52;4.10;;;;;;;;;;5009688;28;20034;-73
2023/01/26 07:39:27;;;;;;;29.48;5.97;;;;;;;;;;5010818;28;20042;-71
2023/01/26 07:41:52;;;;;;;27.27;6.53;;;;;;;;;;5012946;28;20112;-72
2023/01/26 07:44:18;;;;;;;30.50;6.03;;;;;;;;;;5021421;28;20037;-72
2023/01/26 07:46:43;;;;;;;22.48;6.03;;;;;;;;;;5020768;28;20540;-72
2023/01/26 07:49:10;;;;;;;23.83;7.10;;;;;;;;;;5013315;28;20077;-72
2023/01/26 07:51:36;;;;;;;15.88;6.22;;;;;;;;;;4976410;28;1223980;-72
2023/01/26 07:54:02;;;;;;;21.45;6.35;;;;;;;;;;5021949;28;20397;-73
2023/01/26 07:56:28;;;;;;;27.45;6.15;;;;;;;;;;5028666;28;20029;-72
2023/01/26 07:58:54;;;;;;;27.70;8.00;;;;;;;;;;5018797;28;20036;-72
2023/01/26 08:01:19;;;;;;;36.13;7.95;;;;;;;;;;5014765;28;20045;-71
2023/01/26 08:03:45;;;;;;;22.70;8.27;;;;;;;;;;5012924;28;20402;-72
2023/01/26 08:06:11;;;;;;;22.40;7.82;;;;;;;;;;5021299;28;20045;-72
2023/01/26 08:08:40;;;;;;;31.52;8.02;;;;;;;;;;5022251;28;20389;-73
2023/01/26 08:11:06;;;;;;;33.92;7.93;;;;;;;;;;5013379;28;20033;-73
2023/01/26 08:13:31;;;;;;;30.58;7.70;;;;;;;;;;5022607;28;20049;-72
2023/01/26 08:16:02;;;;;;;33.40;7.60;;;;;;;;;;5027990;28;20440;-72
2023/01/26 08:18:27;;;;;;;29.83;7.57;;;;;;;;;;5017117;28;20533;-72
2023/01/26 08:20:53;;;;;;;32.03;7.25;;;;;;;;;;5027404;28;20038;-73
2023/01/26 08:23:19;;;;;;;31.10;8.38;;;;;;;;;;5022179;28;20045;-72
2023/01/26 08:25:45;;;;;;;28.08;7.93;;;;;;;;;;5017708;28;20529;-72
2023/01/26 08:28:11;;;;;;;32.33;7.78;;;;;;;;;;5016792;28;20029;-72
2023/01/26 08:30:36;;;;;;;28.95;7.80;;;;;;;;;;5023318;28;20038;-72
2023/01/26 08:33:02;;;;;;;21.60;6.70;;;;;;;;;;5009718;28;20045;-74
2023/01/26 08:35:28;;;;;;;23.33;6.55;;;;;;;;;;5020770;28;20038;-72
2023/01/26 08:37:53;;;;;;;33.08;7.45;;;;;;;;;;5014293;28;20042;-72
2023/01/26 08:40:18;;;;;;;29.05;7.45;;;;;;;;;;5013809;28;20060;-72
2023/01/26 08:42:44;;;;;;;31.88;8.10;;;;;;;;;;5018227;28;20485;-74
2023/01/26 08:45:09;;;;;;;23.52;6.93;;;;;;;;;;4998748;28;20087;-72
2023/01/26 08:47:35;;;;;;;27.40;7.50;;;;;;;;;;5009506;28;20780;-73
2023/01/26 08:50:00;;;;;;;32.08;7.95;;;;;;;;;;5023602;28;20044;-73
2023/01/26 08:52:26;;;;;;;24.63;7.68;;;;;;;;;;5017903;28;20052;-73
2023/01/26 08:54:51;;;;;;;41.67;8.57;;;;;;;;;;5011573;28;20525;-74
2023/01/26 08:57:17;;;;;;;38.45;7.68;;;;;;;;;;5023176;28;20037;-77
2023/01/26 08:59:42;;;;;;;25.38;7.03;;;;;;;;;;5012027;28;20042;-72
2023/01/26 09:02:09;;;;;;;33.97;7.82;;;;;;;;;;5021664;28;20039;-73
2023/01/26 09:04:34;;;;;;;43.03;8.07;;;;;;;;;;5020994;28;20123;-73
2023/01/26 09:07:00;;;;;;;34.42;7.43;;;;;;;;;;5028317;28;20090;-72
2023/01/26 09:09:25;;;;;;;27.40;7.38;;;;;;;;;;5014291;28;20041;-72
2023/01/26 09:11:54;;;;;;;21.00;6.60;;;;;;;;;;5027507;28;20037;-72
2023/01/26 09:14:20;;;;;;;39.97;8.02;;;;;;;;;;5009962;28;20041;-73
2023/01/26 09:16:45;;;;;;;27.17;7.30;;;;;;;;;;5024997;28;20045;-73
2023/01/26 09:19:10;;;;;;;32.22;7.72;;;;;;;;;;5002147;28;20104;-73
2023/01/26 09:21:36;;;;;;;27.50;7.05;;;;;;;;;;5023551;28;20438;-73
2023/01/26 09:24:01;;;;;;;26.25;6.57;;;;;;;;;;5003524;28;20486;-73
2023/01/26 09:26:28;;;;;;;25.23;6.43;;;;;;;;;;5013741;28;20038;-73
2023/01/26 09:28:53;;;;;;;26.35;7.35;;;;;;;;;;4999693;28;20049;-73
2023/01/26 09:31:22;;;;;;;24.05;6.25;;;;;;;;;;5017398;28;20045;-73
2023/01/26 09:33:48;;;;;;;21.80;5.82;;;;;;;;;;5020523;28;20038;-76
2023/01/26 09:36:14;;;;;;;31.88;6.03;;;;;;;;;;5012246;28;20040;-73
2023/01/26 09:38:39;;;;;;;22.10;6.20;;;;;;;;;;5022735;28;20033;-73
2023/01/26 09:41:05;;;;;;;20.48;5.97;;;;;;;;;;5019677;28;20113;-73
2023/01/26 09:43:41;;;;;;;33.75;5.88;;;;;;;;;;5023472;28;20042;-73
2023/01/26 09:46:19;;;;;;;20.92;5.05;;;;;;;;;;5033114;28;20048;-74
2023/01/26 09:48:49;;;;;;;24.40;5.57;;;;;;;;;;5013512;28;20113;-74
2023/01/26 09:51:35;;;;;;;21.30;5.30;;;;;;;;;;5005729;28;20469;-74
2023/01/26 09:54:23;;;;;;;25.17;5.25;;;;;;;;;;5016593;28;20030;-73
2023/01/26 09:56:48;;;;;;;25.20;4.85;;;;;;;;;;5016594;28;20061;-75
2023/01/26 09:59:38;;;;;;;21.05;5.38;;;;;;;;;;5023873;28;20088;-74
2023/01/26 10:02:22;;;;;;;20.90;4.93;;;;;;;;;;5007903;28;20042;-75
2023/01/26 10:04:51;;;;;;;17.45;4.75;;;;;;;;;;5011328;28;20030;-74
2023/01/26 10:07:16;;;;;;;15.20;4.45;;;;;;;;;;5009267;28;20045;-73
2023/01/26 10:09:45;;;;;;;18.55;4.93;;;;;;;;;;5009950;28;20038;-73
2023/01/26 10:12:31;;;;;;;17.42;5.55;;;;;;;;;;5022817;28;20033;-73
2023/01/26 10:15:30;;;;;;;21.20;4.38;;;;;;;;;;5017374;28;20042;-72
2023/01/26 10:17:56;;;;;;;21.88;5.03;;;;;;;;;;5008558;28;20062;-73
2023/01/26 10:20:33;;;;;;;13.23;4.43;;;;;;;;;;5014645;28;20083;-78
2023/01/26 10:23:22;;;;;;;17.65;4.72;;;;;;;;;;5019063;28;20464;-74
2023/01/26 10:25:49;;;;;;;13.95;3.83;;;;;;;;;;5008448;28;20046;-72
2023/01/26 10:28:25;;;;;;;15.68;3.60;;;;;;;;;;5019404;28;20371;-73
2023/01/26 10:30:50;;;;;;;14.63;3.40;;;;;;;;;;5023847;28;20044;-75
2023/01/26 10:33:31;;;;;;;17.23;3.83;;;;;;;;;;5021239;28;20042;-73
2023/01/26 10:35:57;;;;;;;11.60;3.60;;;;;;;;;;5012687;28;20113;-73
2023/01/26 10:38:31;;;;;;;7.97;3.42;;;;;;;;;;5024093;28;20509;-73
2023/01/26 10:40:59;;;;;;;11.85;3.20;;;;;;;;;;5012645;28;20049;-73
2023/01/26 10:43:24;;;;;;;14.90;3.97;;;;;;;;;;5011865;28;20045;-73
2023/01/26 10:45:50;;;;;;;10.07;3.58;;;;;;;;;;5016046;28;20088;-74
2023/01/26 10:48:19;;;;;;;10.68;3.25;;;;;;;;;;5006776;28;20037;-80
2023/01/26 10:50:46;;;;;;;11.80;2.78;;;;;;;;;;5019226;28;20045;-73
2023/01/26 10:53:24;;;;;;;11.27;3.30;;;;;;;;;;5000465;28;20029;-73
2023/01/26 10:56:01;;;;;;;10.95;3.05;;;;;;;;;;5016808;28;20048;-79
2023/01/26 10:58:48;;;;;;;16.42;3.05;;;;;;;;;;5021045;28;20095;-74
2023/01/26 11:01:15;;;;;;;7.80;3.38;;;;;;;;;;5000169;28;20045;-73
2023/01/26 11:03:41;;;;;;;12.30;2.78;;;;;;;;;;5016491;28;20067;-74
2023/01/26 11:06:13;;;;;;;10.85;3.40;;;;;;;;;;5014758;28;20034;-74
2023/01/26 11:08:38;;;;;;;10.75;2.70;;;;;;;;;;5016454;28;20120;-73
2023/01/26 11:11:09;;;;;;;8.90;2.40;;;;;;;;;;5017432;28;20125;-73
2023/01/26 11:13:35;;;;;;;10.02;2.67;;;;;;;;;;5027295;28;20033;-79
2023/01/26 11:16:05;;;;;;;14.57;2.47;;;;;;;;;;5021319;28;20088;-73
2023/01/26 11:18:55;;;;;;;8.32;2.28;;;;;;;;;;5028012;28;20124;-72
2023/01/26 11:21:23;;;;;;;6.63;2.35;;;;;;;;;;5014083;28;20101;-73
2023/01/26 11:24:11;;;;;;;10.75;2.80;;;;;;;;;;5022683;28;20037;-74
2023/01/26 11:26:58;;;;;;;10.68;2.83;;;;;;;;;;5028317;28;20037;-74
2023/01/26 11:29:26;;;;;;;9.23;2.08;;;;;;;;;;5025769;28;20487;-75
2023/01/26 11:32:09;;;;;;;11.82;2.35;;;;;;;;;;5019055;28;20168;-74
2023/01/26 11:34:37;;;;;;;9.07;2.15;;;;;;;;;;5016798;28;20041;-73
2023/01/26 11:37:18;;;;;;;9.57;2.35;;;;;;;;;;5021933;28;20038;-73
2023/01/26 11:39:43;;;;;;;7.13;2.13;;;;;;;;;;5019826;28;20071;-75
2023/01/26 11:42:28;;;;;;;11.88;2.08;;;;;;;;;;5018536;28;20397;-73
2023/01/26 11:44:56;;;;;;;;;;;;;;;;;;5006660;28;20038;-75
2023/01/26 11:47:40;;;;;;;8.00;2.10;;;;;;;;;;5020008;28;19952;-73
2023/01/26 11:50:16;;;;;;;;;;;;;;;;;;5015569;28;20040;-74
2023/01/26 11:52:59;;;;;;;5.65;1.63;;;;;;;;;;5009071;28;19917;-74
2023/01/26 11:55:28;;;;;;;4.78;1.45;;;;;;;;;;5012065;28;20048;-73
2023/01/26 11:58:31;;;;;;;8.60;1.55;;;;;;;;;;5011668;28;20046;-73
2023/01/26 12:00:59;;;;;;;7.72;2.33;;;;;;;;;;5021203;28;20113;-73
2023/01/26 12:03:44;;;;;;;7.25;1.35;;;;;;;;;;5020600;28;20038;-74
2023/01/26 12:06:19;;;;;;;9.07;1.23;;;;;;;;;;5019960;28;20049;-73
2023/01/26 12:08:52;;;;;;;7.65;1.42;;;;;;;;;;5020165;28;20116;-74
2023/01/26 12:11:40;;;;;;;10.00;1.60;;;;;;;;;;5014090;28;20462;-73
2023/01/26 12:14:07;;;;;;;4.68;1.90;;;;;;;;;;5020128;28;20037;-73
2023/01/26 12:16:41;;;;;;;10.05;1.67;;;;;;;;;;5015213;28;20052;-73
2023/01/26 12:19:31;;;;;;;8.38;1.83;;;;;;;;;;5016300;28;20510;-74
2023/01/26 12:22:42;;;;;;;9.15;1.65;;;;;;;;;;5012724;28;20081;-73
2023/01/26 12:25:22;;;;;;;6.03;1.60;;;;;;;;;;4941544;28;20051;-75
2023/01/26 12:28:44;;;;;;;3.90;1.35;;;;;;;;;;4949784;28;20130;-73
2023/01/26 12:31:24;;;;;;;7.10;1.70;;;;;;;;;;4946577;29;20051;-73
2023/01/26 12:33:52;;;;;;;4.68;1.52;;;;;;;;;;4950223;29;20535;-75
2023/01/26 12:36:17;;;;;;;9.35;1.60;;;;;;;;;;4988953;28;20115;-74
2023/01/26 12:39:07;;;;;;;11.00;1.88;;;;;;;;;;5019309;28;20049;-73
2023/01/26 12:42:06;;;;;;;4.30;1.08;;;;;;;;;;5020269;28;20638;-74
2023/01/26 12:45:01;;;;;;;5.60;1.73;;;;;;;;;;5013302;28;20041;-73
2023/01/26 12:47:36;;;;;;;5.63;1.33;;;;;;;;;;5007960;28;20045;-73
2023/01/26 12:50:19;;;;;;;6.70;1.52;;;;;;;;;;5018676;28;20037;-73
2023/01/26 12:52:49;;;;;;;6.50;1.63;;;;;;;;;;5015023;28;20058;-73
2023/01/26 12:55:30;;;;;;;10.60;1.40;;;;;;;;;;5011051;28;20046;-73
2023/01/26 12:58:13;;;;;;;8.10;1.58;;;;;;;;;;5007332;28;20045;-73
2023/01/26 13:00:39;;;;;;;5.32;1.67;;;;;;;;;;5023005;28;20440;-74
2023/01/26 13:03:21;;;;;;;8.38;1.88;;;;;;;;;;5015682;28;20092;-73
2023/01/26 13:06:18;;;;;;;7.18;1.40;;;;;;;;;;5011488;28;20045;-73
2023/01/26 13:08:50;;;;;;;6.60;1.35;;;;;;;;;;5019382;28;20051;-73
2023/01/26 13:11:38;;;;;;;10.20;1.60;;;;;;;;;;4998094;28;20050;-74
2023/01/26 13:14:22;;;;;;;8.25;1.20;;;;;;;;;;5007201;28;20084;-75
2023/01/26 13:16:48;;;;;;;6.90;1.55;;;;;;;;;;5019346;28;20037;-73
2023/01/26 13:19:34;;;;;;;4.97;1.20;;;;;;;;;;5011182;28;20041;-73
2023/01/26 13:22:00;;;;;;;6.90;1.33;;;;;;;;;;5042813;28;20508;-74
2023/01/26 13:24:25;;;;;;;5.70;1.00;;;;;;;;;;5009925;28;20045;-78
2023/01/26 13:26:57;;;;;;;4.13;1.30;;;;;;;;;;5015161;28;20037;-77
2023/01/26 13:29:23;;;;;;;4.35;1.00;;;;;;;;;;5003736;28;20076;-74
2023/01/26 13:31:48;;;;;;;6.20;1.35;;;;;;;;;;5014909;28;20473;-74
2023/01/26 13:34:15;;;;;;;6.20;1.27;;;;;;;;;;5014793;28;20108;-74
2023/01/26 13:36:44;;;;;;;6.68;1.00;;;;;;;;;;5010521;28;20038;-74
2023/01/26 13:39:30;;;;;;;7.05;1.45;;;;;;;;;;5010103;28;20129;-79
2023/01/26 13:41:56;;;;;;;10.80;1.27;;;;;;;;;;5008767;28;20041;-74
2023/01/26 13:44:40;;;;;;;8.70;1.10;;;;;;;;;;5022524;28;20038;-75
2023/01/26 13:47:12;;;;;;;4.57;0.80;;;;;;;;;;5016470;28;20042;-73
2023/01/26 13:49:39;;;;;;;4.32;0.80;;;;;;;;;;5009285;28;20132;-74
2023/01/26 13:52:25;;;;;;;6.47;1.10;;;;;;;;;;5012271;28;20045;-73
2023/01/26 13:54:52;;;;;;;3.78;0.80;;;;;;;;;;5014455;28;20042;-78
2023/01/26 13:57:26;;;;;;;2.97;1.10;;;;;;;;;;5024194;28;20112;-73
2023/01/26 13:59:57;;;;;;;6.18;1.23;;;;;;;;;;5025441;28;20041;-73
2023/01/26 14:02:31;;;;;;;5.78;1.02;;;;;;;;;;5029137;28;20110;-73
2023/01/26 14:04:57;;;;;;;4.10;1.27;;;;;;;;;;4997786;28;20095;-76
2023/01/26 14:07:35;;;;;;;5.68;1.83;;;;;;;;;;5013559;28;20038;-74
2023/01/26 14:10:01;;;;;;;7.13;1.10;;;;;;;;;;4999413;28;20095;-74
2023/01/26 14:12:30;;;;;;;4.80;1.60;;;;;;;;;;5012107;28;20244;-73
2023/01/26 14:14:59;;;;;;;7.50;1.20;;;;;;;;;;5017226;28;20037;-74
2023/01/26 14:17:30;;;;;;;10.07;1.58;;;;;;;;;;5002103;28;20122;-74
2023/01/26 14:19:57;;;;;;;6.40;1.13;;;;;;;;;;5008381;28;20148;-73
2023/01/26 14:22:22;;;;;;;6.68;1.33;;;;;;;;;;5024604;28;20029;-73
2023/01/26 14:24:51;;;;;;;3.97;1.23;;;;;;;;;;5044227;28;20041;-74
2023/01/26 14:27:28;;;;;;;4.95;1.20;;;;;;;;;;5022290;28;20045;-75
2023/01/26 14:29:54;;;;;;;8.82;1.58;;;;;;;;;;5018451;28;20041;-75
2023/01/26 14:32:24;;;;;;;8.95;1.25;;;;;;;;;;5022125;28;20533;-73
2023/01/26 14:34:57;;;;;;;8.02;1.33;;;;;;;;;;5015068;28;20033;-74
2023/01/26 14:37:23;;;;;;;5.30;1.33;;;;;;;;;;5024442;28;20041;-73
2023/01/26 14:39:49;;;;;;;5.32;1.23;;;;;;;;;;5019407;28;20046;-77
2023/01/26 14:42:19;;;;;;;3.97;1.20;;;;;;;;;;5043385;28;20090;-73
2023/01/26 14:44:45;;;;;;;4.50;1.15;;;;;;;;;;5043874;28;20037;-73
2023/01/26 14:47:20;;;;;;;10.18;1.27;;;;;;;;;;5032065;28;20072;-74
2023/01/26 14:50:00;;;;;;;9.23;1.50;;;;;;;;;;5029147;28;20046;-74
2023/01/26 14:52:28;;;;;;;8.65;1.65;;;;;;;;;;5026210;28;20521;-77
2023/01/26 14:54:56;;;;;;;5.78;1.40;;;;;;;;;;5029064;28;20049;-76
2023/01/26 14:57:23;;;;;;;8.05;1.42;;;;;;;;;;5027873;28;20025;-73
2023/01/26 14:59:57;;;;;;;9.07;1.50;;;;;;;;;;5024606;28;20033;-74
2023/01/26 15:02:25;;;;;;;5.82;1.15;;;;;;;;;;5013125;28;20124;-73
2023/01/26 15:05:03;;;;;;;4.05;1.00;;;;;;;;;;5021371;28;20033;-73
2023/01/26 15:07:35;;;;;;;8.68;1.40;;;;;;;;;;5017730;28;20050;-73
2023/01/26 15:10:03;;;;;;;6.70;1.40;;;;;;;;;;5023076;28;20022;-73
2023/01/26 15:12:32;;;;;;;5.65;1.40;;;;;;;;;;5024967;28;20973;-73
2023/01/26 15:14:59;;;;;;;6.05;1.23;;;;;;;;;;5021092;28;20840;-73
2023/01/26 15:17:41;;;;;;;7.15;1.33;;;;;;;;;;5017192;28;20040;-73
2023/01/26 15:20:30;;;;;;;6.03;1.48;;;;;;;;;;5021355;28;20064;-73
2023/01/26 15:22:55;;;;;;;6.68;1.67;;;;;;;;;;5002503;28;20038;-73
2023/01/26 15:25:27;;;;;;;8.75;1.17;;;;;;;;;;5018832;28;20116;-74
2023/01/26 15:27:56;;;;;;;8.13;1.40;;;;;;;;;;5000039;28;20034;-74
2023/01/26 15:30:27;;;;;;;9.35;1.58;;;;;;;;;;5016092;28;20064;-73